sensor_id;sensor_type;location;lat;lon;timestamp;P1;durP1;ratioP1;P2;durP2;ratioP2
19482;SDS011;9882;51.166;6.992;2022-10-14T04:00:32;16.33;;;6.88;;
19482;SDS011;9882;51.166;6.992;2022-10-14T04:03:18;15.18;;;6.25;;
19482;SDS011;9882;51.166;6.992;2022-10-14T04:05:46;21.88;;;7.00;;
19482;SDS011;9882;51.166;6.992;2022-10-14T04:08:19;16.73;;;6.32;;
19482;SDS011;9882;51.166;6.992;2022-10-14T04:10:54;15.05;;;5.88;;
19482;SDS011;9882;51.166;6.992;2022-10-14T04:13:26;14.30;;;5.88;;
19482;SDS011;9882;51.166;6.992;2022-10-14T04:15:56;17.20;;;6.65;;
19482;SDS011;9882;51.166;6.992;2022-10-14T04:18:33;17.45;;;6.32;;
19482;SDS011;9882;51.166;6.992;2022-10-14T04:21:03;10.77;;;5.65;;
19482;SDS011;9882;51.166;6.992;2022-10-14T04:23:34;18.80;;;6.60;;
19482;SDS011;9882;51.166;6.992;2022-10-14T04:26:12;13.68;;;6.22;;
19482;SDS011;9882;51.166;6.992;2022-10-14T04:28:43;14.45;;;6.43;;
19482;SDS011;9882;51.166;6.992;2022-10-14T04:31:19;14.63;;;5.32;;
19482;SDS011;9882;51.166;6.992;2022-10-14T04:33:58;13.23;;;5.10;;
19482;SDS011;9882;51.166;6.992;2022-10-14T04:36:35;19.40;;;6.40;;
19482;SDS011;9882;51.166;6.992;2022-10-14T04:39:17;13.05;;;5.45;;
19482;SDS011;9882;51.166;6.992;2022-10-14T04:41:46;9.45;;;5.10;;
19482;SDS011;9882;51.166;6.992;2022-10-14T04:44:18;13.40;;;5.13;;
19482;SDS011;9882;51.166;6.992;2022-10-14T04:46:51;15.40;;;6.18;;
19482;SDS011;9882;51.166;6.992;2022-10-14T04:49:22;15.43;;;5.47;;
19482;SDS011;9882;51.166;6.992;2022-10-14T04:52:02;16.88;;;6.30;;
19482;SDS011;9882;51.166;6.992;2022-10-14T04:54:38;16.63;;;5.40;;
19482;SDS011;9882;51.166;6.992;2022-10-14T04:57:07;19.58;;;5.60;;
19482;SDS011;9882;51.166;6.992;2022-10-14T04:59:37;13.48;;;5.07;;
19482;SDS011;9882;51.166;6.992;2022-10-14T05:02:15;19.63;;;6.43;;
19482;SDS011;9882;51.166;6.992;2022-10-14T05:04:51;13.85;;;5.15;;
19482;SDS011;9882;51.166;6.992;2022-10-14T05:07:20;19.33;;;6.85;;
19482;SDS011;9882;51.166;6.992;2022-10-14T05:09:55;14.55;;;5.80;;
19482;SDS011;9882;51.166;6.992;2022-10-14T05:12:32;12.52;;;5.45;;
19482;SDS011;9882;51.166;6.992;2022-10-14T05:15:02;12.82;;;5.40;;
19482;SDS011;9882;51.166;6.992;2022-10-14T05:17:44;17.27;;;5.05;;
19482;SDS011;9882;51.166;6.992;2022-10-14T05:20:17;13.85;;;5.35;;
19482;SDS011;9882;51.166;6.992;2022-10-14T05:22:50;11.88;;;4.93;;
19482;SDS011;9882;51.166;6.992;2022-10-14T05:25:19;10.98;;;4.57;;
19482;SDS011;9882;51.166;6.992;2022-10-14T05:27:48;14.48;;;5.15;;
19482;SDS011;9882;51.166;6.992;2022-10-14T05:30:17;13.57;;;5.70;;
19482;SDS011;9882;51.166;6.992;2022-10-14T05:32:51;10.10;;;4.53;;
19482;SDS011;9882;51.166;6.992;2022-10-14T05:35:20;12.00;;;4.85;;
19482;SDS011;9882;51.166;6.992;2022-10-14T05:38:00;12.15;;;4.50;;
19482;SDS011;9882;51.166;6.992;2022-10-14T05:40:33;11.10;;;4.60;;
19482;SDS011;9882;51.166;6.992;2022-10-14T05:43:02;12.00;;;4.78;;
19482;SDS011;9882;51.166;6.992;2022-10-14T05:45:32;10.50;;;4.80;;
19482;SDS011;9882;51.166;6.992;2022-10-14T05:48:03;10.23;;;4.45;;
19482;SDS011;9882;51.166;6.992;2022-10-14T05:50:32;8.88;;;4.50;;
19482;SDS011;9882;51.166;6.992;2022-10-14T05:53:06;13.57;;;5.40;;
19482;SDS011;9882;51.166;6.992;2022-10-14T05:55:40;9.05;;;4.10;;
19482;SDS011;9882;51.166;6.992;2022-10-14T05:58:08;13.00;;;5.60;;
19482;SDS011;9882;51.166;6.992;2022-10-14T06:00:40;12.07;;;5.07;;
19482;SDS011;9882;51.166;6.992;2022-10-14T06:03:14;12.88;;;4.78;;
19482;SDS011;9882;51.166;6.992;2022-10-14T06:05:43;10.48;;;5.03;;
19482;SDS011;9882;51.166;6.992;2022-10-14T06:08:12;11.43;;;4.75;;
19482;SDS011;9882;51.166;6.992;2022-10-14T06:10:43;13.55;;;5.32;;
19482;SDS011;9882;51.166;6.992;2022-10-14T06:13:11;10.82;;;5.03;;
19482;SDS011;9882;51.166;6.992;2022-10-14T06:15:43;14.00;;;5.18;;
19482;SDS011;9882;51.166;6.992;2022-10-14T06:18:12;11.27;;;5.15;;
19482;SDS011;9882;51.166;6.992;2022-10-14T06:20:42;13.98;;;5.45;;
19482;SDS011;9882;51.166;6.992;2022-10-14T06:23:10;14.30;;;5.47;;
19482;SDS011;9882;51.166;6.992;2022-10-14T06:25:38;10.82;;;5.10;;
19482;SDS011;9882;51.166;6.992;2022-10-14T06:28:07;11.95;;;4.63;;
19482;SDS011;9882;51.166;6.992;2022-10-14T06:30:35;11.55;;;4.53;;
19482;SDS011;9882;51.166;6.992;2022-10-14T06:33:04;11.60;;;5.00;;
19482;SDS011;9882;51.166;6.992;2022-10-14T06:35:32;9.35;;;4.30;;
19482;SDS011;9882;51.166;6.992;2022-10-14T06:38:02;10.07;;;4.07;;
19482;SDS011;9882;51.166;6.992;2022-10-14T06:40:31;12.38;;;5.45;;
19482;SDS011;9882;51.166;6.992;2022-10-14T06:42:59;11.70;;;4.75;;
19482;SDS011;9882;51.166;6.992;2022-10-14T06:45:28;9.00;;;4.00;;
19482;SDS011;9882;51.166;6.992;2022-10-14T06:47:56;9.77;;;4.28;;
19482;SDS011;9882;51.166;6.992;2022-10-14T06:50:25;13.15;;;4.75;;
19482;SDS011;9882;51.166;6.992;2022-10-14T06:52:54;7.97;;;4.00;;
19482;SDS011;9882;51.166;6.992;2022-10-14T06:55:23;9.05;;;4.13;;
19482;SDS011;9882;51.166;6.992;2022-10-14T06:57:52;8.70;;;3.88;;
19482;SDS011;9882;51.166;6.992;2022-10-14T07:00:21;7.03;;;4.00;;
19482;SDS011;9882;51.166;6.992;2022-10-14T07:02:50;9.98;;;4.43;;
19482;SDS011;9882;51.166;6.992;2022-10-14T07:05:18;11.85;;;4.50;;
19482;SDS011;9882;51.166;6.992;2022-10-14T07:07:47;8.60;;;4.00;;
19482;SDS011;9882;51.166;6.992;2022-10-14T07:10:16;6.93;;;3.70;;
19482;SDS011;9882;51.166;6.992;2022-10-14T07:12:46;10.75;;;3.88;;
19482;SDS011;9882;51.166;6.992;2022-10-14T07:15:14;12.18;;;4.07;;
19482;SDS011;9882;51.166;6.992;2022-10-14T07:17:43;11.43;;;4.32;;
19482;SDS011;9882;51.166;6.992;2022-10-14T07:20:11;10.35;;;4.20;;
19482;SDS011;9882;51.166;6.992;2022-10-14T07:22:40;5.60;;;3.53;;
19482;SDS011;9882;51.166;6.992;2022-10-14T07:25:08;7.75;;;4.10;;
19482;SDS011;9882;51.166;6.992;2022-10-14T07:27:37;7.75;;;3.88;;
19482;SDS011;9882;51.166;6.992;2022-10-14T07:30:08;7.25;;;3.90;;
19482;SDS011;9882;51.166;6.992;2022-10-14T07:32:38;8.75;;;3.70;;
19482;SDS011;9882;51.166;6.992;2022-10-14T07:35:07;10.05;;;4.18;;
19482;SDS011;9882;51.166;6.992;2022-10-14T07:37:36;9.95;;;3.85;;
19482;SDS011;9882;51.166;6.992;2022-10-14T07:40:05;5.47;;;3.47;;
19482;SDS011;9882;51.166;6.992;2022-10-14T07:42:35;8.57;;;4.18;;
19482;SDS011;9882;51.166;6.992;2022-10-14T07:45:04;7.78;;;3.92;;
19482;SDS011;9882;51.166;6.992;2022-10-14T07:47:35;8.75;;;3.63;;
19482;SDS011;9882;51.166;6.992;2022-10-14T07:50:04;7.75;;;3.83;;
19482;SDS011;9882;51.166;6.992;2022-10-14T07:52:33;8.18;;;3.90;;
19482;SDS011;9882;51.166;6.992;2022-10-14T07:55:02;8.05;;;3.70;;
19482;SDS011;9882;51.166;6.992;2022-10-14T07:57:31;9.18;;;3.60;;
19482;SDS011;9882;51.166;6.992;2022-10-14T08:00:00;11.77;;;4.22;;
19482;SDS011;9882;51.166;6.992;2022-10-14T08:02:39;7.32;;;3.80;;
19482;SDS011;9882;51.166;6.992;2022-10-14T08:05:07;7.82;;;4.18;;
19482;SDS011;9882;51.166;6.992;2022-10-14T08:07:55;7.30;;;3.90;;
19482;SDS011;9882;51.166;6.992;2022-10-14T08:10:24;6.22;;;3.40;;
19482;SDS011;9882;51.166;6.992;2022-10-14T08:12:52;9.20;;;3.60;;
19482;SDS011;9882;51.166;6.992;2022-10-14T08:15:23;10.02;;;3.88;;
19482;SDS011;9882;51.166;6.992;2022-10-14T08:17:55;11.57;;;4.22;;
19482;SDS011;9882;51.166;6.992;2022-10-14T08:20:24;6.15;;;3.33;;
19482;SDS011;9882;51.166;6.992;2022-10-14T08:22:53;7.30;;;3.85;;
19482;SDS011;9882;51.166;6.992;2022-10-14T08:25:21;7.85;;;3.63;;
19482;SDS011;9882;51.166;6.992;2022-10-14T08:27:50;9.57;;;4.05;;
19482;SDS011;9882;51.166;6.992;2022-10-14T08:30:20;9.45;;;3.45;;
19482;SDS011;9882;51.166;6.992;2022-10-14T08:32:48;8.48;;;4.32;;
19482;SDS011;9882;51.166;6.992;2022-10-14T08:35:18;7.03;;;3.75;;
19482;SDS011;9882;51.166;6.992;2022-10-14T08:37:53;11.20;;;4.20;;
19482;SDS011;9882;51.166;6.992;2022-10-14T08:40:24;13.30;;;4.82;;
19482;SDS011;9882;51.166;6.992;2022-10-14T08:42:57;9.38;;;4.30;;
19482;SDS011;9882;51.166;6.992;2022-10-14T08:45:31;6.63;;;3.90;;
19482;SDS011;9882;51.166;6.992;2022-10-14T08:48:03;9.18;;;3.80;;
19482;SDS011;9882;51.166;6.992;2022-10-14T08:50:41;9.70;;;3.85;;
19482;SDS011;9882;51.166;6.992;2022-10-14T08:53:15;7.28;;;3.88;;
19482;SDS011;9882;51.166;6.992;2022-10-14T08:55:46;9.23;;;4.15;;
19482;SDS011;9882;51.166;6.992;2022-10-14T08:58:19;7.10;;;3.72;;
19482;SDS011;9882;51.166;6.992;2022-10-14T09:00:57;8.50;;;4.25;;
19482;SDS011;9882;51.166;6.992;2022-10-14T09:03:30;8.38;;;3.72;;
19482;SDS011;9882;51.166;6.992;2022-10-14T09:06:01;9.85;;;4.20;;
19482;SDS011;9882;51.166;6.992;2022-10-14T09:08:32;9.85;;;4.00;;
19482;SDS011;9882;51.166;6.992;2022-10-14T09:11:04;10.68;;;3.65;;
19482;SDS011;9882;51.166;6.992;2022-10-14T09:13:37;12.07;;;4.00;;
19482;SDS011;9882;51.166;6.992;2022-10-14T09:16:11;13.45;;;4.80;;
19482;SDS011;9882;51.166;6.992;2022-10-14T09:18:44;8.75;;;3.90;;
19482;SDS011;9882;51.166;6.992;2022-10-14T09:21:22;10.15;;;4.13;;
19482;SDS011;9882;51.166;6.992;2022-10-14T09:24:00;10.00;;;4.47;;
19482;SDS011;9882;51.166;6.992;2022-10-14T09:26:36;7.45;;;3.85;;
19482;SDS011;9882;51.166;6.992;2022-10-14T09:29:12;9.38;;;4.18;;
19482;SDS011;9882;51.166;6.992;2022-10-14T09:31:49;8.65;;;4.63;;
19482;SDS011;9882;51.166;6.992;2022-10-14T09:34:27;9.57;;;4.25;;
19482;SDS011;9882;51.166;6.992;2022-10-14T09:37:04;8.02;;;4.57;;
19482;SDS011;9882;51.166;6.992;2022-10-14T09:39:48;8.52;;;3.67;;
19482;SDS011;9882;51.166;6.992;2022-10-14T09:42:19;12.13;;;4.90;;
19482;SDS011;9882;51.166;6.992;2022-10-14T09:45:02;9.27;;;4.32;;
19482;SDS011;9882;51.166;6.992;2022-10-14T09:47:35;12.27;;;4.70;;
19482;SDS011;9882;51.166;6.992;2022-10-14T09:50:13;10.75;;;4.22;;
19482;SDS011;9882;51.166;6.992;2022-10-14T09:52:56;12.57;;;3.97;;
19482;SDS011;9882;51.166;6.992;2022-10-14T09:55:28;7.80;;;3.88;;
19482;SDS011;9882;51.166;6.992;2022-10-14T09:58:03;7.63;;;4.18;;
19482;SDS011;9882;51.166;6.992;2022-10-14T10:00:34;9.70;;;4.25;;
19482;SDS011;9882;51.166;6.992;2022-10-14T10:03:04;9.40;;;3.55;;
19482;SDS011;9882;51.166;6.992;2022-10-14T10:05:33;11.65;;;4.93;;
19482;SDS011;9882;51.166;6.992;2022-10-14T10:08:07;6.53;;;3.70;;
19482;SDS011;9882;51.166;6.992;2022-10-14T10:10:54;10.75;;;4.00;;
19482;SDS011;9882;51.166;6.992;2022-10-14T10:13:30;12.05;;;4.55;;
19482;SDS011;9882;51.166;6.992;2022-10-14T10:16:01;14.32;;;4.82;;
19482;SDS011;9882;51.166;6.992;2022-10-14T10:18:32;8.27;;;4.22;;
19482;SDS011;9882;51.166;6.992;2022-10-14T10:21:01;15.35;;;4.70;;
19482;SDS011;9882;51.166;6.992;2022-10-14T10:23:34;10.82;;;3.97;;
19482;SDS011;9882;51.166;6.992;2022-10-14T10:26:13;11.38;;;4.60;;
19482;SDS011;9882;51.166;6.992;2022-10-14T10:28:44;12.25;;;4.70;;
19482;SDS011;9882;51.166;6.992;2022-10-14T10:31:24;12.95;;;4.85;;
19482;SDS011;9882;51.166;6.992;2022-10-14T10:34:04;11.85;;;4.95;;
19482;SDS011;9882;51.166;6.992;2022-10-14T10:36:47;11.35;;;4.43;;
19482;SDS011;9882;51.166;6.992;2022-10-14T10:39:25;15.05;;;5.10;;
19482;SDS011;9882;51.166;6.992;2022-10-14T10:42:06;14.32;;;5.07;;
19482;SDS011;9882;51.166;6.992;2022-10-14T10:44:55;16.70;;;5.70;;
19482;SDS011;9882;51.166;6.992;2022-10-14T10:47:35;15.65;;;4.80;;
19482;SDS011;9882;51.166;6.992;2022-10-14T10:50:15;14.68;;;5.95;;
19482;SDS011;9882;51.166;6.992;2022-10-14T10:52:59;13.85;;;5.43;;
19482;SDS011;9882;51.166;6.992;2022-10-14T10:55:54;18.33;;;6.35;;
19482;SDS011;9882;51.166;6.992;2022-10-14T10:58:34;14.95;;;5.70;;
19482;SDS011;9882;51.166;6.992;2022-10-14T11:01:13;19.33;;;6.63;;
19482;SDS011;9882;51.166;6.992;2022-10-14T11:03:57;12.75;;;5.03;;
19482;SDS011;9882;51.166;6.992;2022-10-14T11:06:38;17.08;;;6.05;;
19482;SDS011;9882;51.166;6.992;2022-10-14T11:09:32;14.73;;;5.53;;
19482;SDS011;9882;51.166;6.992;2022-10-14T11:12:26;16.85;;;6.40;;
19482;SDS011;9882;51.166;6.992;2022-10-14T11:15:06;19.23;;;5.85;;
19482;SDS011;9882;51.166;6.992;2022-10-14T11:17:51;15.88;;;5.63;;
19482;SDS011;9882;51.166;6.992;2022-10-14T11:20:29;18.30;;;6.32;;
19482;SDS011;9882;51.166;6.992;2022-10-14T11:23:08;17.58;;;6.85;;
19482;SDS011;9882;51.166;6.992;2022-10-14T11:25:54;18.83;;;6.80;;
19482;SDS011;9882;51.166;6.992;2022-10-14T11:28:33;23.58;;;6.60;;
19482;SDS011;9882;51.166;6.992;2022-10-14T11:31:12;20.73;;;7.60;;
19482;SDS011;9882;51.166;6.992;2022-10-14T11:33:56;19.58;;;7.57;;
19482;SDS011;9882;51.166;6.992;2022-10-14T11:36:37;20.35;;;6.43;;
19482;SDS011;9882;51.166;6.992;2022-10-14T11:39:14;22.85;;;7.13;;
19482;SDS011;9882;51.166;6.992;2022-10-14T11:41:55;19.08;;;6.55;;
19482;SDS011;9882;51.166;6.992;2022-10-14T11:44:33;21.05;;;7.60;;
19482;SDS011;9882;51.166;6.992;2022-10-14T11:47:07;25.75;;;7.75;;
19482;SDS011;9882;51.166;6.992;2022-10-14T11:49:40;17.27;;;6.85;;
19482;SDS011;9882;51.166;6.992;2022-10-14T11:52:16;19.95;;;7.75;;
19482;SDS011;9882;51.166;6.992;2022-10-14T11:54:51;16.92;;;6.43;;
19482;SDS011;9882;51.166;6.992;2022-10-14T11:57:24;18.50;;;7.20;;
19482;SDS011;9882;51.166;6.992;2022-10-14T12:02:51;15.35;;;6.82;;
19482;SDS011;9882;51.166;6.992;2022-10-14T12:05:27;20.08;;;8.00;;
19482;SDS011;9882;51.166;6.992;2022-10-14T12:08:06;20.20;;;7.53;;
19482;SDS011;9882;51.166;6.992;2022-10-14T12:10:45;20.00;;;7.93;;
19482;SDS011;9882;51.166;6.992;2022-10-14T12:13:18;19.25;;;7.40;;
19482;SDS011;9882;51.166;6.992;2022-10-14T12:15:54;18.70;;;6.68;;
19482;SDS011;9882;51.166;6.992;2022-10-14T12:18:22;24.05;;;8.38;;
19482;SDS011;9882;51.166;6.992;2022-10-14T12:20:53;20.55;;;7.90;;
19482;SDS011;9882;51.166;6.992;2022-10-14T12:23:28;20.20;;;7.57;;
19482;SDS011;9882;51.166;6.992;2022-10-14T12:26:02;21.92;;;8.15;;
19482;SDS011;9882;51.166;6.992;2022-10-14T12:28:37;22.83;;;7.28;;
19482;SDS011;9882;51.166;6.992;2022-10-14T12:31:21;20.85;;;7.43;;
19482;SDS011;9882;51.166;6.992;2022-10-14T12:34:15;22.65;;;8.52;;
19482;SDS011;9882;51.166;6.992;2022-10-14T12:36:54;21.77;;;8.25;;
19482;SDS011;9882;51.166;6.992;2022-10-14T12:39:28;21.15;;;8.02;;
19482;SDS011;9882;51.166;6.992;2022-10-14T12:42:01;22.60;;;7.95;;
19482;SDS011;9882;51.166;6.992;2022-10-14T12:44:32;15.05;;;6.63;;
19482;SDS011;9882;51.166;6.992;2022-10-14T12:47:15;22.25;;;7.47;;
19482;SDS011;9882;51.166;6.992;2022-10-14T12:49:47;22.27;;;7.40;;
19482;SDS011;9882;51.166;6.992;2022-10-14T12:52:19;19.02;;;7.38;;
19482;SDS011;9882;51.166;6.992;2022-10-14T12:54:51;25.92;;;8.82;;
19482;SDS011;9882;51.166;6.992;2022-10-14T12:57:24;22.73;;;7.30;;
19482;SDS011;9882;51.166;6.992;2022-10-14T12:59:56;22.05;;;7.47;;
19482;SDS011;9882;51.166;6.992;2022-10-14T13:02:30;20.42;;;7.05;;
19482;SDS011;9882;51.166;6.992;2022-10-14T13:05:02;19.23;;;7.05;;
19482;SDS011;9882;51.166;6.992;2022-10-14T13:07:38;18.50;;;7.47;;
19482;SDS011;9882;51.166;6.992;2022-10-14T13:19:39;23.63;;;8.30;;
19482;SDS011;9882;51.166;6.992;2022-10-14T13:25:02;23.92;;;8.13;;
19482;SDS011;9882;51.166;6.992;2022-10-14T13:27:46;21.45;;;8.15;;
19482;SDS011;9882;51.166;6.992;2022-10-14T13:30:32;16.92;;;7.05;;
19482;SDS011;9882;51.166;6.992;2022-10-14T13:33:08;18.23;;;6.72;;
19482;SDS011;9882;51.166;6.992;2022-10-14T13:35:47;20.13;;;7.25;;
19482;SDS011;9882;51.166;6.992;2022-10-14T13:38:24;20.23;;;7.05;;
19482;SDS011;9882;51.166;6.992;2022-10-14T13:40:53;22.58;;;7.40;;
19482;SDS011;9882;51.166;6.992;2022-10-14T13:43:25;20.58;;;7.47;;
19482;SDS011;9882;51.166;6.992;2022-10-14T13:46:01;20.50;;;7.57;;
19482;SDS011;9882;51.166;6.992;2022-10-14T13:48:33;20.40;;;6.85;;
19482;SDS011;9882;51.166;6.992;2022-10-14T13:51:10;19.35;;;7.30;;
19482;SDS011;9882;51.166;6.992;2022-10-14T13:54:07;21.50;;;7.00;;
19482;SDS011;9882;51.166;6.992;2022-10-14T13:56:41;16.92;;;6.60;;
19482;SDS011;9882;51.166;6.992;2022-10-14T13:59:17;23.85;;;7.13;;
19482;SDS011;9882;51.166;6.992;2022-10-14T14:01:56;26.73;;;7.50;;
19482;SDS011;9882;51.166;6.992;2022-10-14T14:04:29;18.00;;;6.45;;
19482;SDS011;9882;51.166;6.992;2022-10-14T14:07:00;15.13;;;6.18;;
19482;SDS011;9882;51.166;6.992;2022-10-14T14:09:46;19.02;;;6.70;;
19482;SDS011;9882;51.166;6.992;2022-10-14T14:12:17;18.42;;;6.65;;
19482;SDS011;9882;51.166;6.992;2022-10-14T14:14:48;18.70;;;6.93;;
19482;SDS011;9882;51.166;6.992;2022-10-14T14:17:18;17.35;;;6.72;;
19482;SDS011;9882;51.166;6.992;2022-10-14T14:19:49;18.10;;;6.07;;
19482;SDS011;9882;51.166;6.992;2022-10-14T14:22:20;17.15;;;6.40;;
19482;SDS011;9882;51.166;6.992;2022-10-14T14:24:50;16.08;;;6.65;;
19482;SDS011;9882;51.166;6.992;2022-10-14T14:27:19;16.35;;;6.55;;
19482;SDS011;9882;51.166;6.992;2022-10-14T14:29:52;16.27;;;5.85;;
19482;SDS011;9882;51.166;6.992;2022-10-14T14:32:22;16.77;;;6.60;;
19482;SDS011;9882;51.166;6.992;2022-10-14T14:34:57;18.60;;;6.53;;
19482;SDS011;9882;51.166;6.992;2022-10-14T14:37:30;18.40;;;6.72;;
19482;SDS011;9882;51.166;6.992;2022-10-14T14:40:21;15.75;;;6.18;;
19482;SDS011;9882;51.166;6.992;2022-10-14T14:42:54;15.13;;;6.20;;
19482;SDS011;9882;51.166;6.992;2022-10-14T14:45:26;19.30;;;6.68;;
19482;SDS011;9882;51.166;6.992;2022-10-14T14:47:57;18.30;;;6.18;;
19482;SDS011;9882;51.166;6.992;2022-10-14T14:50:30;14.48;;;5.93;;
19482;SDS011;9882;51.166;6.992;2022-10-14T14:53:05;20.70;;;7.32;;
19482;SDS011;9882;51.166;6.992;2022-10-14T14:55:39;16.05;;;6.32;;
19482;SDS011;9882;51.166;6.992;2022-10-14T14:58:19;17.73;;;6.97;;
19482;SDS011;9882;51.166;6.992;2022-10-14T15:00:50;17.23;;;6.60;;
19482;SDS011;9882;51.166;6.992;2022-10-14T15:03:21;19.00;;;7.43;;
19482;SDS011;9882;51.166;6.992;2022-10-14T15:05:51;18.67;;;6.93;;
19482;SDS011;9882;51.166;6.992;2022-10-14T15:08:27;20.42;;;6.80;;
19482;SDS011;9882;51.166;6.992;2022-10-14T15:10:57;15.07;;;6.38;;
19482;SDS011;9882;51.166;6.992;2022-10-14T15:13:31;12.85;;;6.05;;
19482;SDS011;9882;51.166;6.992;2022-10-14T15:16:10;21.08;;;6.78;;
19482;SDS011;9882;51.166;6.992;2022-10-14T15:18:39;28.27;;;8.88;;
19482;SDS011;9882;51.166;6.992;2022-10-14T15:21:13;21.27;;;6.50;;
19482;SDS011;9882;51.166;6.992;2022-10-14T15:23:57;18.08;;;6.88;;
19482;SDS011;9882;51.166;6.992;2022-10-14T15:26:31;14.68;;;5.95;;
19482;SDS011;9882;51.166;6.992;2022-10-14T15:29:02;20.83;;;7.28;;
19482;SDS011;9882;51.166;6.992;2022-10-14T15:31:42;16.38;;;6.57;;
19482;SDS011;9882;51.166;6.992;2022-10-14T15:34:17;18.08;;;6.72;;
19482;SDS011;9882;51.166;6.992;2022-10-14T15:36:48;17.48;;;7.15;;
19482;SDS011;9882;51.166;6.992;2022-10-14T15:39:20;19.60;;;6.97;;
19482;SDS011;9882;51.166;6.992;2022-10-14T15:41:49;19.73;;;7.85;;
19482;SDS011;9882;51.166;6.992;2022-10-14T15:44:18;18.35;;;7.50;;
19482;SDS011;9882;51.166;6.992;2022-10-14T15:46:46;18.77;;;6.10;;
19482;SDS011;9882;51.166;6.992;2022-10-14T15:49:35;21.13;;;7.40;;
19482;SDS011;9882;51.166;6.992;2022-10-14T15:52:05;16.88;;;6.60;;
19482;SDS011;9882;51.166;6.992;2022-10-14T15:54:38;17.60;;;6.57;;
19482;SDS011;9882;51.166;6.992;2022-10-14T15:57:08;16.52;;;6.50;;
19482;SDS011;9882;51.166;6.992;2022-10-14T15:59:38;17.10;;;6.38;;
19482;SDS011;9882;51.166;6.992;2022-10-14T16:02:08;18.30;;;6.55;;
19482;SDS011;9882;51.166;6.992;2022-10-14T16:04:43;14.98;;;6.68;;
19482;SDS011;9882;51.166;6.992;2022-10-14T16:07:20;24.95;;;7.63;;
19482;SDS011;9882;51.166;6.992;2022-10-14T16:09:51;20.23;;;6.93;;
19482;SDS011;9882;51.166;6.992;2022-10-14T16:12:20;16.45;;;6.35;;
19482;SDS011;9882;51.166;6.992;2022-10-14T16:14:49;14.70;;;5.90;;
19482;SDS011;9882;51.166;6.992;2022-10-14T16:17:17;19.15;;;6.80;;
19482;SDS011;9882;51.166;6.992;2022-10-14T16:19:47;19.08;;;6.80;;
19482;SDS011;9882;51.166;6.992;2022-10-14T16:22:15;18.77;;;6.65;;
19482;SDS011;9882;51.166;6.992;2022-10-14T16:24:43;21.00;;;7.22;;
19482;SDS011;9882;51.166;6.992;2022-10-14T16:27:13;17.42;;;6.40;;
19482;SDS011;9882;51.166;6.992;2022-10-14T16:29:42;20.10;;;6.15;;
19482;SDS011;9882;51.166;6.992;2022-10-14T16:32:10;16.50;;;6.25;;
19482;SDS011;9882;51.166;6.992;2022-10-14T16:34:40;16.75;;;6.45;;
19482;SDS011;9882;51.166;6.992;2022-10-14T16:37:09;19.73;;;6.40;;
19482;SDS011;9882;51.166;6.992;2022-10-14T16:39:37;17.65;;;7.20;;
19482;SDS011;9882;51.166;6.992;2022-10-14T16:42:06;17.50;;;6.43;;
19482;SDS011;9882;51.166;6.992;2022-10-14T16:44:36;18.13;;;7.18;;
19482;SDS011;9882;51.166;6.992;2022-10-14T16:47:05;18.55;;;7.20;;
19482;SDS011;9882;51.166;6.992;2022-10-14T16:49:46;15.63;;;6.35;;
19482;SDS011;9882;51.166;6.992;2022-10-14T16:52:17;14.15;;;5.88;;
19482;SDS011;9882;51.166;6.992;2022-10-14T16:54:46;16.90;;;5.93;;
19482;SDS011;9882;51.166;6.992;2022-10-14T16:57:15;17.30;;;6.82;;
19482;SDS011;9882;51.166;6.992;2022-10-14T16:59:45;17.90;;;6.97;;
19482;SDS011;9882;51.166;6.992;2022-10-14T17:02:14;19.88;;;7.22;;
19482;SDS011;9882;51.166;6.992;2022-10-14T17:04:43;17.55;;;6.70;;
19482;SDS011;9882;51.166;6.992;2022-10-14T17:07:13;19.38;;;5.97;;
19482;SDS011;9882;51.166;6.992;2022-10-14T17:09:43;19.23;;;7.57;;
19482;SDS011;9882;51.166;6.992;2022-10-14T17:12:11;15.50;;;5.90;;
19482;SDS011;9882;51.166;6.992;2022-10-14T17:14:40;20.00;;;7.53;;
19482;SDS011;9882;51.166;6.992;2022-10-14T17:17:11;22.67;;;7.78;;
19482;SDS011;9882;51.166;6.992;2022-10-14T17:19:39;14.88;;;6.18;;
19482;SDS011;9882;51.166;6.992;2022-10-14T17:22:08;14.63;;;6.15;;
19482;SDS011;9882;51.166;6.992;2022-10-14T17:24:37;15.68;;;6.30;;
19482;SDS011;9882;51.166;6.992;2022-10-14T17:27:08;16.50;;;6.75;;
19482;SDS011;9882;51.166;6.992;2022-10-14T17:29:36;19.02;;;6.22;;
19482;SDS011;9882;51.166;6.992;2022-10-14T17:32:05;16.83;;;6.45;;
19482;SDS011;9882;51.166;6.992;2022-10-14T17:34:35;15.18;;;6.10;;
19482;SDS011;9882;51.166;6.992;2022-10-14T17:37:03;19.58;;;7.15;;
19482;SDS011;9882;51.166;6.992;2022-10-14T17:39:38;16.40;;;6.15;;
19482;SDS011;9882;51.166;6.992;2022-10-14T17:42:07;14.55;;;5.60;;
19482;SDS011;9882;51.166;6.992;2022-10-14T17:44:35;16.70;;;6.75;;
19482;SDS011;9882;51.166;6.992;2022-10-14T17:47:07;18.10;;;6.13;;
19482;SDS011;9882;51.166;6.992;2022-10-14T17:49:37;18.17;;;6.63;;
19482;SDS011;9882;51.166;6.992;2022-10-14T17:52:07;12.25;;;5.20;;
19482;SDS011;9882;51.166;6.992;2022-10-14T17:54:37;15.38;;;6.25;;
19482;SDS011;9882;51.166;6.992;2022-10-14T17:57:06;16.17;;;5.90;;
19482;SDS011;9882;51.166;6.992;2022-10-14T17:59:34;12.10;;;5.57;;
19482;SDS011;9882;51.166;6.992;2022-10-14T18:02:03;17.25;;;5.55;;
19482;SDS011;9882;51.166;6.992;2022-10-14T18:04:35;16.95;;;6.18;;
19482;SDS011;9882;51.166;6.992;2022-10-14T18:07:05;15.50;;;5.63;;
19482;SDS011;9882;51.166;6.992;2022-10-14T18:09:34;18.48;;;6.70;;
19482;SDS011;9882;51.166;6.992;2022-10-14T18:12:03;13.32;;;5.38;;
19482;SDS011;9882;51.166;6.992;2022-10-14T18:14:34;20.42;;;6.32;;
19482;SDS011;9882;51.166;6.992;2022-10-14T18:17:03;18.08;;;6.18;;
19482;SDS011;9882;51.166;6.992;2022-10-14T18:19:32;14.10;;;5.63;;
19482;SDS011;9882;51.166;6.992;2022-10-14T18:22:01;17.08;;;6.28;;
19482;SDS011;9882;51.166;6.992;2022-10-14T18:24:31;16.10;;;6.25;;
19482;SDS011;9882;51.166;6.992;2022-10-14T18:27:04;12.68;;;5.50;;
19482;SDS011;9882;51.166;6.992;2022-10-14T18:29:33;19.83;;;5.88;;
19482;SDS011;9882;51.166;6.992;2022-10-14T18:32:01;17.17;;;6.15;;
19482;SDS011;9882;51.166;6.992;2022-10-14T18:34:30;14.35;;;5.93;;
19482;SDS011;9882;51.166;6.992;2022-10-14T18:36:59;12.93;;;5.35;;
19482;SDS011;9882;51.166;6.992;2022-10-14T18:39:27;16.85;;;6.43;;
19482;SDS011;9882;51.166;6.992;2022-10-14T18:41:57;17.23;;;6.20;;
19482;SDS011;9882;51.166;6.992;2022-10-14T18:44:26;13.23;;;5.00;;
19482;SDS011;9882;51.166;6.992;2022-10-14T18:46:54;12.93;;;5.15;;
19482;SDS011;9882;51.166;6.992;2022-10-14T18:49:23;24.33;;;6.38;;
19482;SDS011;9882;51.166;6.992;2022-10-14T18:51:52;18.02;;;7.00;;
19482;SDS011;9882;51.166;6.992;2022-10-14T18:54:21;20.65;;;6.90;;
19482;SDS011;9882;51.166;6.992;2022-10-14T18:56:50;11.80;;;4.93;;
19482;SDS011;9882;51.166;6.992;2022-10-14T18:59:22;11.45;;;5.20;;
19482;SDS011;9882;51.166;6.992;2022-10-14T19:01:51;13.95;;;5.45;;
19482;SDS011;9882;51.166;6.992;2022-10-14T19:04:21;16.05;;;6.35;;
19482;SDS011;9882;51.166;6.992;2022-10-14T19:06:52;16.60;;;5.45;;
19482;SDS011;9882;51.166;6.992;2022-10-14T19:09:21;17.00;;;5.88;;
19482;SDS011;9882;51.166;6.992;2022-10-14T19:11:55;13.30;;;5.65;;
19482;SDS011;9882;51.166;6.992;2022-10-14T19:14:26;11.23;;;5.28;;
19482;SDS011;9882;51.166;6.992;2022-10-14T19:16:57;14.35;;;4.90;;
19482;SDS011;9882;51.166;6.992;2022-10-14T19:19:26;12.52;;;5.60;;
19482;SDS011;9882;51.166;6.992;2022-10-14T19:21:54;17.10;;;5.93;;
19482;SDS011;9882;51.166;6.992;2022-10-14T19:24:25;15.65;;;6.32;;
19482;SDS011;9882;51.166;6.992;2022-10-14T19:26:54;24.33;;;6.30;;
19482;SDS011;9882;51.166;6.992;2022-10-14T19:29:22;15.10;;;5.90;;
19482;SDS011;9882;51.166;6.992;2022-10-14T19:31:53;15.07;;;5.97;;
19482;SDS011;9882;51.166;6.992;2022-10-14T19:34:21;14.40;;;5.65;;
19482;SDS011;9882;51.166;6.992;2022-10-14T19:36:52;13.35;;;5.35;;
19482;SDS011;9882;51.166;6.992;2022-10-14T19:39:21;15.30;;;5.80;;